Hovedside
METAR-TAF:

METAR-TAF

Lufthavner :

Pilanesberg International Airport

Sun City, Sør-Afrika

breddegrad: 25-20-01S, lengdegrad: 027-10-24E, høyde over havet: 1040 m

Gjeldene værobservasjon

Denne rapporten ble laget for 1 time og 3 minutter siden, klokken 01:00 UTC
Flau vind
Temperatur 2°C
Luftfuktighet 80%
Trykk 1027 hPa

METAR: FAPN 140100Z AUTO 00000KT //// // ////// 02/M01 Q1027

Tid: 04:03 (02:03 UTC)


TAF: fraværende

Værobservasjoner og værvarsel for over 4000 flyplasser (METAR- og TAF-rapporter).

Tilgjengelige stasjoner er representert av de røde og gule prikkene på kartet.

Hold musepekeren over prikken for å se navnet på stasjonen.

Klikk så for å se værobservasjoner og -varsler.

For å forandre kartet kan du klikke på den grønne knappen med svart kryss for å zoome inn, på den grønne knappen med strek for å zoome ut, eller på de grønne pilene for å se tilstøtende kart.


METAR-TAF: